CPA484 VHHH-RCTP
Flight info
| Callsign | CPA484 |
|---|---|
| Flight time | N/A |
| Altitude | 37000 |
| Route | DALOL V631 ENVAR M750 EXTRA/N0508F290 M750 TONGA TONGA1B |
| Aircraft | B77W/H-SDE1E2E3FGHIJ2J3J4J5M1RWXY/LB1D1 |
Departure
| Time | N/A |
|---|---|
| Airport | Hong Kong International Airport (VHHH) |
Arrival
| Time | 2026-05-07 17:52 |
|---|---|
| Airport | Taiwan Taoyuan International Airport (RCTP) |
| Time | Latitude | Longitude | Altitude | Speed | Heading |
|---|---|---|---|---|---|
| 2026-05-07 17:33 | 24.65314 | 120.59685 | 25289 ft | 476 kts | 29° |
| 2026-05-07 17:33 | 24.66598 | 120.60613 | 24998 ft | 475 kts | 32° |
| 2026-05-07 17:33 | 24.67764 | 120.61575 | 24728 ft | 474 kts | 36° |
| 2026-05-07 17:34 | 24.68443 | 120.62194 | 24561 ft | 474 kts | 37° |
| 2026-05-07 17:34 | 24.69951 | 120.63641 | 24180 ft | 472 kts | 39° |
| 2026-05-07 17:34 | 24.70731 | 120.64403 | 23978 ft | 472 kts | 39° |
| 2026-05-07 17:35 | 24.80527 | 120.74040 | 21421 ft | 455 kts | 39° |
| 2026-05-07 17:36 | 24.82899 | 120.76376 | 20772 ft | 450 kts | 39° |
| 2026-05-07 17:36 | 24.85244 | 120.78687 | 20142 ft | 445 kts | 39° |
| 2026-05-07 17:36 | 24.87596 | 120.81005 | 19510 ft | 441 kts | 40° |
| 2026-05-07 17:36 | 24.89871 | 120.83250 | 18871 ft | 436 kts | 40° |
| 2026-05-07 17:37 | 24.92102 | 120.85551 | 18234 ft | 433 kts | 45° |
| 2026-05-07 17:37 | 24.94111 | 120.88026 | 17606 ft | 429 kts | 47° |
| 2026-05-07 17:37 | 24.96056 | 120.90488 | 16972 ft | 425 kts | 47° |
| 2026-05-07 17:37 | 24.98017 | 120.92975 | 16335 ft | 421 kts | 47° |
| 2026-05-07 17:38 | 24.99965 | 120.95443 | 15711 ft | 416 kts | 47° |
| 2026-05-07 17:38 | 25.01782 | 120.97747 | 15130 ft | 412 kts | 47° |
| 2026-05-07 17:38 | 25.03252 | 120.99611 | 14647 ft | 409 kts | 47° |
| 2026-05-07 17:38 | 25.03954 | 121.00502 | 14412 ft | 407 kts | 47° |
| 2026-05-07 17:39 | 25.06594 | 121.03852 | 13532 ft | 401 kts | 47° |
| 2026-05-07 17:39 | 25.08424 | 121.06175 | 12942 ft | 396 kts | 47° |
| 2026-05-07 17:39 | 25.10247 | 121.08489 | 12326 ft | 392 kts | 47° |
| 2026-05-07 17:39 | 25.12031 | 121.10755 | 11747 ft | 388 kts | 47° |
| 2026-05-07 17:40 | 25.13497 | 121.12619 | 11278 ft | 384 kts | 47° |
| 2026-05-07 17:40 | 25.15249 | 121.14847 | 10775 ft | 377 kts | 48° |
| 2026-05-07 17:40 | 25.16934 | 121.16991 | 10571 ft | 350 kts | 48° |
| 2026-05-07 17:40 | 25.18468 | 121.18946 | 10584 ft | 323 kts | 47° |
| 2026-05-07 17:41 | 25.19943 | 121.20822 | 10459 ft | 316 kts | 47° |
| 2026-05-07 17:41 | 25.21424 | 121.22706 | 10226 ft | 317 kts | 47° |
| 2026-05-07 17:41 | 25.22850 | 121.24522 | 10205 ft | 304 kts | 47° |
| 2026-05-07 17:41 | 25.24245 | 121.26298 | 10071 ft | 299 kts | 47° |
| 2026-05-07 17:42 | 25.25600 | 121.28024 | 9884 ft | 298 kts | 47° |
| 2026-05-07 17:42 | 25.26997 | 121.29803 | 9500 ft | 299 kts | 47° |
| 2026-05-07 17:42 | 25.28373 | 121.31557 | 9127 ft | 299 kts | 48° |
| 2026-05-07 17:42 | 25.29773 | 121.33343 | 8763 ft | 298 kts | 48° |
| 2026-05-07 17:43 | 25.31146 | 121.35093 | 8417 ft | 297 kts | 48° |
| 2026-05-07 17:43 | 25.32531 | 121.36858 | 8023 ft | 295 kts | 48° |
| 2026-05-07 17:43 | 25.33825 | 121.38509 | 7750 ft | 284 kts | 48° |
| 2026-05-07 17:43 | 25.35130 | 121.40174 | 7424 ft | 284 kts | 48° |
| 2026-05-07 17:44 | 25.36231 | 121.42001 | 7076 ft | 283 kts | 69° |
| 2026-05-07 17:44 | 25.36506 | 121.44141 | 6743 ft | 280 kts | 97° |
| 2026-05-07 17:44 | 25.35898 | 121.46121 | 6389 ft | 268 kts | 125° |
| 2026-05-07 17:44 | 25.34557 | 121.47521 | 5947 ft | 260 kts | 153° |
| 2026-05-07 17:45 | 25.32814 | 121.48054 | 5273 ft | 263 kts | 178° |
| 2026-05-07 17:45 | 25.30953 | 121.48045 | 4768 ft | 260 kts | 182° |
| 2026-05-07 17:45 | 25.29185 | 121.47981 | 4650 ft | 241 kts | 182° |
| 2026-05-07 17:45 | 25.27575 | 121.47910 | 4626 ft | 221 kts | 187° |
| 2026-05-07 17:46 | 25.26201 | 121.47330 | 4561 ft | 204 kts | 216° |
| 2026-05-07 17:46 | 25.25114 | 121.46315 | 4462 ft | 197 kts | 224° |
| 2026-05-07 17:46 | 25.24162 | 121.45227 | 4335 ft | 192 kts | 227° |
| 2026-05-07 17:46 | 25.23275 | 121.44133 | 4252 ft | 190 kts | 229° |
| 2026-05-07 17:47 | 25.22381 | 121.43001 | 4173 ft | 191 kts | 229° |
| 2026-05-07 17:47 | 25.21493 | 121.41866 | 3934 ft | 190 kts | 229° |
| 2026-05-07 17:47 | 25.20634 | 121.40768 | 3698 ft | 185 kts | 229° |
| 2026-05-07 17:47 | 25.19795 | 121.39700 | 3472 ft | 178 kts | 229° |
| 2026-05-07 17:48 | 25.19001 | 121.38691 | 3260 ft | 171 kts | 229° |
| 2026-05-07 17:48 | 25.18219 | 121.37698 | 3046 ft | 167 kts | 229° |
| 2026-05-07 17:48 | 25.17454 | 121.36730 | 2836 ft | 167 kts | 229° |
| 2026-05-07 17:48 | 25.16686 | 121.35757 | 2617 ft | 161 kts | 229° |
| 2026-05-07 17:49 | 25.15968 | 121.34848 | 2416 ft | 154 kts | 229° |
| 2026-05-07 17:49 | 25.15261 | 121.33952 | 2221 ft | 151 kts | 229° |
| 2026-05-07 17:49 | 25.14565 | 121.33073 | 2017 ft | 151 kts | 229° |
| 2026-05-07 17:49 | 25.13869 | 121.32191 | 1819 ft | 150 kts | 229° |
| 2026-05-07 17:50 | 25.13179 | 121.31317 | 1619 ft | 149 kts | 230° |
| 2026-05-07 17:50 | 25.12509 | 121.30470 | 1424 ft | 149 kts | 230° |
| 2026-05-07 17:50 | 25.11817 | 121.29594 | 1224 ft | 149 kts | 230° |
| 2026-05-07 17:50 | 25.11390 | 121.29056 | 1102 ft | 149 kts | 230° |
| 2026-05-07 17:51 | 25.10704 | 121.28188 | 903 ft | 149 kts | 229° |
| 2026-05-07 17:51 | 25.10009 | 121.27312 | 687 ft | 149 kts | 229° |
| 2026-05-07 17:51 | 25.09321 | 121.26449 | 494 ft | 149 kts | 229° |
| 2026-05-07 17:51 | 25.08632 | 121.25591 | 302 ft | 148 kts | 229° |
| 2026-05-07 17:52 | 25.07950 | 121.24721 | 139 ft | 147 kts | 229° |
| 2026-05-07 17:52 | 25.07343 | 121.23949 | 122 ft | 117 kts | 229° |
| 2026-05-07 17:52 | 25.06893 | 121.23379 | 122 ft | 80 kts | 227° |
| 2026-05-07 17:52 | 25.06604 | 121.23010 | 122 ft | 40 kts | 229° |
| 2026-05-07 17:53 | 25.06427 | 121.22784 | 122 ft | 36 kts | 228° |
| 2026-05-07 17:53 | 25.06276 | 121.22594 | 122 ft | 15 kts | 232° |
| 2026-05-07 17:53 | 25.06264 | 121.22485 | 122 ft | 15 kts | 310° |
| 2026-05-07 17:53 | 25.06329 | 121.22422 | 122 ft | 7 kts | 321° |
| 2026-05-07 17:54 | 25.06359 | 121.22405 | 122 ft | 4 kts | 359° |
| 2026-05-07 17:54 | 25.06387 | 121.22424 | 122 ft | 6 kts | 45° |
| 2026-05-07 17:54 | 25.06430 | 121.22474 | 122 ft | 9 kts | 48° |
| 2026-05-07 17:54 | 25.06476 | 121.22533 | 122 ft | 11 kts | 49° |
| 2026-05-07 17:55 | 25.06530 | 121.22601 | 122 ft | 12 kts | 49° |
| 2026-05-07 17:55 | 25.06588 | 121.22674 | 122 ft | 13 kts | 49° |
| 2026-05-07 17:55 | 25.06651 | 121.22752 | 122 ft | 13 kts | 48° |
| 2026-05-07 17:55 | 25.06717 | 121.22835 | 122 ft | 14 kts | 50° |
| 2026-05-07 17:56 | 25.06791 | 121.22932 | 122 ft | 17 kts | 50° |
| 2026-05-07 17:56 | 25.06877 | 121.23038 | 122 ft | 18 kts | 48° |
| 2026-05-07 17:56 | 25.06963 | 121.23147 | 122 ft | 18 kts | 49° |
| 2026-05-07 17:56 | 25.07043 | 121.23247 | 122 ft | 15 kts | 45° |
| 2026-05-07 17:57 | 25.07126 | 121.23251 | 122 ft | 13 kts | 320° |
| 2026-05-07 17:57 | 25.07173 | 121.23202 | 122 ft | 14 kts | 316° |
| 2026-05-07 17:57 | 25.07277 | 121.23225 | 122 ft | 11 kts | 50° |
| 2026-05-07 17:57 | 25.07322 | 121.23271 | 122 ft | 7 kts | 9° |
| 2026-05-07 17:58 | 25.07374 | 121.23243 | 122 ft | 9 kts | 323° |
| 2026-05-07 17:58 | 25.07406 | 121.23215 | 122 ft | 3 kts | 320° |
| 2026-05-07 17:58 | 25.07412 | 121.23210 | 122 ft | 0 kts | 320° |